createdAt,value
2022-09-24T00:01:45.674Z,3.50
2022-09-24T00:06:48.269Z,3.73
2022-09-24T00:11:50.492Z,3.83
2022-09-24T00:16:52.006Z,3.27
2022-09-24T00:21:53.620Z,3.50
2022-09-24T00:26:55.374Z,3.33
2022-09-24T00:31:56.988Z,3.70
2022-09-24T00:36:59.099Z,3.73
2022-09-24T00:42:00.825Z,4.10
2022-09-24T00:47:02.509Z,3.67
2022-09-24T00:52:04.869Z,3.57
2022-09-24T00:57:06.933Z,3.33
2022-09-24T01:02:08.692Z,3.00
2022-09-24T01:07:10.333Z,3.00
2022-09-24T01:12:20.221Z,3.20
2022-09-24T01:17:54.923Z,3.50
2022-09-24T01:23:11.399Z,3.40
2022-09-24T01:28:34.165Z,3.30
2022-09-24T01:33:36.833Z,3.30
2022-09-24T01:38:41.892Z,3.10
2022-09-24T01:43:44.219Z,3.50
2022-09-24T01:48:45.981Z,3.10
2022-09-24T01:53:53.459Z,3.30
2022-09-24T01:59:00.390Z,3.10
2022-09-24T02:04:06.976Z,3.50
2022-09-24T02:09:35.943Z,3.13
2022-09-24T02:14:49.458Z,3.10
2022-09-24T02:19:52.383Z,3.40
2022-09-24T02:24:55.569Z,3.00
2022-09-24T02:29:58.385Z,2.93
2022-09-24T02:35:04.007Z,3.30
2022-09-24T02:40:07.411Z,3.13
2022-09-24T02:45:10.439Z,3.70
2022-09-24T02:50:12.072Z,3.40
2022-09-24T02:55:13.864Z,3.50
2022-09-24T03:00:15.990Z,3.97
2022-09-24T03:05:18.176Z,3.77
2022-09-24T03:10:19.876Z,3.17
2022-09-24T03:15:21.419Z,3.30
2022-09-24T03:20:24.339Z,3.20
2022-09-24T03:25:25.976Z,3.40
2022-09-24T03:30:46.240Z,3.50
2022-09-24T03:35:47.799Z,3.23
2022-09-24T03:40:49.359Z,3.33
2022-09-24T03:45:51.383Z,3.33
2022-09-24T03:50:53.861Z,2.90
2022-09-24T03:55:56.837Z,3.50
2022-09-24T04:00:58.774Z,2.93
2022-09-24T04:06:00.289Z,3.80
2022-09-24T04:11:01.869Z,3.40
2022-09-24T04:16:04.254Z,3.30
2022-09-24T04:21:06.270Z,3.27
2022-09-24T04:26:07.856Z,3.27
2022-09-24T04:31:09.836Z,3.70
2022-09-24T04:36:11.496Z,3.90
2022-09-24T04:41:13.753Z,3.53
2022-09-24T04:46:15.435Z,3.40
2022-09-24T04:51:19.398Z,3.70
2022-09-24T04:56:21.025Z,3.33
2022-09-24T05:01:23.682Z,3.70
2022-09-24T05:06:25.546Z,3.90
2022-09-24T05:11:27.125Z,3.63
2022-09-24T05:16:28.733Z,3.93
2022-09-24T05:21:31.420Z,3.50
2022-09-24T05:26:51.358Z,3.67
2022-09-24T05:31:52.974Z,3.73
2022-09-24T05:36:54.569Z,4.30
2022-09-24T05:41:56.903Z,3.47
2022-09-24T05:46:59.188Z,3.67
2022-09-24T05:52:01.722Z,3.70
2022-09-24T05:57:03.432Z,3.73
2022-09-24T06:02:06.097Z,4.03
2022-09-24T06:07:07.585Z,3.50
2022-09-24T06:12:10.711Z,4.00
2022-09-24T06:17:12.290Z,4.30
2022-09-24T06:22:15.233Z,4.20
2022-09-24T06:27:16.921Z,3.90
2022-09-24T06:32:19.684Z,3.60
2022-09-24T06:37:21.281Z,3.90
2022-09-24T06:42:22.874Z,4.13
2022-09-24T06:47:26.887Z,3.83
2022-09-24T06:52:29.877Z,4.13
2022-09-24T06:57:31.917Z,4.60
2022-09-24T07:02:33.766Z,3.80
2022-09-24T07:07:36.274Z,4.10
2022-09-24T07:12:37.833Z,4.20
2022-09-24T07:17:39.822Z,4.20
2022-09-24T07:22:42.840Z,5.13
2022-09-24T07:27:44.505Z,4.73
2022-09-24T07:32:46.054Z,4.30
2022-09-24T07:37:47.545Z,4.83
2022-09-24T07:42:49.369Z,4.13
2022-09-24T07:48:01.756Z,4.10
2022-09-24T07:53:03.391Z,4.20
2022-09-24T07:58:04.977Z,4.60
2022-09-24T08:03:07.523Z,4.20
2022-09-24T08:08:09.385Z,4.60
2022-09-24T08:13:11.077Z,4.70
2022-09-24T08:18:12.713Z,4.30
2022-09-24T08:23:14.317Z,3.93
2022-09-24T08:28:19.724Z,4.37
2022-09-24T08:33:21.216Z,4.70
2022-09-24T08:38:22.929Z,4.07
2022-09-24T08:43:32.439Z,4.77
2022-09-24T08:48:37.192Z,4.63
2022-09-24T08:53:46.582Z,4.63
2022-09-24T08:58:57.137Z,5.07
2022-09-24T09:04:11.018Z,4.70
2022-09-24T09:09:15.163Z,4.73
2022-09-24T09:14:23.410Z,4.57
2022-09-24T09:19:30.988Z,5.00
2022-09-24T09:24:42.079Z,5.40
2022-09-24T09:29:56.970Z,5.00
2022-09-24T09:35:15.646Z,4.93
2022-09-24T09:40:31.292Z,5.23
2022-09-24T09:45:55.452Z,5.43
2022-09-24T09:51:05.250Z,5.73
2022-09-24T09:56:07.749Z,6.07
2022-09-24T10:01:13.130Z,5.60
2022-09-24T10:06:32.153Z,6.00
2022-09-24T10:11:34.873Z,5.37
2022-09-24T10:16:48.276Z,5.80
2022-09-24T10:21:50.944Z,6.63
2022-09-24T10:26:53.409Z,6.50
2022-09-24T10:31:55.022Z,5.97
2022-09-24T10:37:07.248Z,6.00
2022-09-24T10:42:25.479Z,6.00
2022-09-24T10:47:27.843Z,6.57
2022-09-24T10:52:38.063Z,6.90
2022-09-24T10:58:07.846Z,6.17
2022-09-24T11:03:46.154Z,6.27
2022-09-24T11:09:22.529Z,6.63
2022-09-24T11:14:45.095Z,6.33
2022-09-24T11:19:55.884Z,6.00
2022-09-24T11:25:36.779Z,5.93
2022-09-24T11:30:47.894Z,5.60
2022-09-24T11:36:02.899Z,5.57
2022-09-24T11:41:21.413Z,5.10
2022-09-24T11:46:37.026Z,4.80
2022-09-24T11:51:57.066Z,4.17
2022-09-24T11:57:05.050Z,4.20
2022-09-24T12:02:17.949Z,4.73
2022-09-24T12:07:36.817Z,5.60
2022-09-24T12:12:42.136Z,5.00
2022-09-24T12:17:59.169Z,5.87
2022-09-24T12:23:07.845Z,5.27
2022-09-24T12:28:12.298Z,5.47
2022-09-24T12:33:16.737Z,5.50
2022-09-24T12:38:23.772Z,5.40
2022-09-24T12:43:49.980Z,5.40
2022-09-24T12:48:52.458Z,6.17
2022-09-24T12:54:06.978Z,5.83
2022-09-24T12:59:24.574Z,6.13
2022-09-24T13:04:28.076Z,6.50
2022-09-24T13:09:37.058Z,7.17
2022-09-24T13:14:41.807Z,6.90
2022-09-24T13:19:44.935Z,6.83
2022-09-24T13:24:49.659Z,6.60
2022-09-24T13:30:09.569Z,6.47
2022-09-24T13:35:21.127Z,7.50
2022-09-24T13:40:28.454Z,8.10
2022-09-24T13:45:31.061Z,7.27
2022-09-24T13:50:37.891Z,7.93
2022-09-24T13:55:47.570Z,7.20
2022-09-24T14:00:49.282Z,6.83
2022-09-24T14:05:51.288Z,7.60
2022-09-24T14:11:10.386Z,7.27
2022-09-24T14:16:18.993Z,8.30
2022-09-24T14:21:27.841Z,8.43
2022-09-24T14:26:42.959Z,8.03
2022-09-24T14:31:49.684Z,7.93
2022-09-24T14:36:51.721Z,8.47
2022-09-24T14:41:54.159Z,9.40
2022-09-24T14:46:59.530Z,9.27
2022-09-24T14:52:03.530Z,8.97
2022-09-24T14:57:22.110Z,8.80
2022-09-24T15:02:29.542Z,9.33
2022-09-24T15:07:31.621Z,9.73
2022-09-24T15:12:35.840Z,9.20
2022-09-24T15:17:37.335Z,9.37
2022-09-24T15:22:39.925Z,9.53
2022-09-24T15:27:44.548Z,8.73
2022-09-24T15:32:47.472Z,10.27
2022-09-24T15:37:49.586Z,10.20
2022-09-24T15:42:51.425Z,9.47
2022-09-24T15:47:53.556Z,9.93
2022-09-24T15:52:58.072Z,8.87
2022-09-24T15:57:59.789Z,10.13
2022-09-24T16:03:01.769Z,9.07
2022-09-24T16:08:03.650Z,9.77
2022-09-24T16:13:05.730Z,10.57
2022-09-24T16:18:09.178Z,9.77
2022-09-24T16:23:15.552Z,10.27
2022-09-24T16:28:17.175Z,9.73
2022-09-24T16:33:18.740Z,9.10
2022-09-24T16:38:23.106Z,9.83
2022-09-24T16:43:26.125Z,9.37
2022-09-24T16:48:27.756Z,9.90
2022-09-24T16:53:29.309Z,10.13
2022-09-24T16:58:32.802Z,10.47
2022-09-24T17:03:34.738Z,8.90
2022-09-24T17:08:55.233Z,8.00
2022-09-24T17:13:57.248Z,8.50
2022-09-24T17:18:58.762Z,8.87
2022-09-24T17:24:00.297Z,9.43
2022-09-24T17:29:02.015Z,9.67
2022-09-24T17:34:10.158Z,9.80
2022-09-24T17:39:12.972Z,9.27
2022-09-24T17:44:17.288Z,9.30
2022-09-24T17:49:18.961Z,9.10
2022-09-24T17:54:23.228Z,10.33
2022-09-24T17:59:26.973Z,9.23
2022-09-24T18:04:31.232Z,8.97
2022-09-24T18:09:33.053Z,8.93
2022-09-24T18:14:34.939Z,9.03
2022-09-24T18:19:36.690Z,8.40
2022-09-24T18:24:38.250Z,10.03
2022-09-24T18:29:40.310Z,9.03
2022-09-24T18:34:42.009Z,8.30
2022-09-24T18:39:44.209Z,8.47
2022-09-24T18:44:48.855Z,9.03
2022-09-24T18:49:50.470Z,9.00
2022-09-24T18:54:52.137Z,8.83
2022-09-24T18:59:54.001Z,8.97
2022-09-24T19:04:55.703Z,10.80
2022-09-24T19:09:57.392Z,10.33
2022-09-24T19:15:00.471Z,9.03
2022-09-24T19:20:02.525Z,9.50
2022-09-24T19:25:04.366Z,8.30
2022-09-24T19:30:06.720Z,8.60
2022-09-24T19:35:08.599Z,7.77
2022-09-24T19:40:10.359Z,9.17
2022-09-24T19:45:12.007Z,8.17
2022-09-24T19:55:39.180Z,8.67
2022-09-24T20:00:40.740Z,8.53
2022-09-24T20:05:43.599Z,8.20
2022-09-24T20:10:46.114Z,7.60
2022-09-24T20:15:47.985Z,9.50
2022-09-24T20:20:49.892Z,8.60
2022-09-24T20:26:11.230Z,8.60
2022-09-24T20:31:15.235Z,9.57
2022-09-24T20:36:20.832Z,10.93
2022-09-24T20:41:25.704Z,11.33
2022-09-24T20:46:28.597Z,9.60
2022-09-24T20:51:33.659Z,10.00
2022-09-24T20:56:35.447Z,10.53
2022-09-24T21:01:37.490Z,8.77
2022-09-24T21:06:39.388Z,10.10
2022-09-24T21:11:42.103Z,10.27
2022-09-24T21:16:44.227Z,10.50
2022-09-24T21:21:46.968Z,9.53
2022-09-24T21:26:49.030Z,10.17
2022-09-24T21:31:50.549Z,9.87
2022-09-24T21:36:52.067Z,10.77
2022-09-24T21:41:55.254Z,10.93
2022-09-24T21:46:56.901Z,11.00
2022-09-24T21:51:59.208Z,10.97
2022-09-24T21:57:00.863Z,10.70
2022-09-24T22:02:03.589Z,11.33
2022-09-24T22:07:05.331Z,10.87
2022-09-24T22:12:07.161Z,11.30
2022-09-24T22:17:08.730Z,12.33
2022-09-24T22:22:10.305Z,10.93
2022-09-24T22:27:12.061Z,12.03
2022-09-24T22:32:13.706Z,11.97
2022-09-24T22:37:15.277Z,11.83
2022-09-24T22:42:16.780Z,11.50
2022-09-24T22:47:18.257Z,11.10
2022-09-24T22:52:19.760Z,12.50
2022-09-24T22:57:21.437Z,12.70
2022-09-24T23:02:23.019Z,10.70
2022-09-24T23:07:24.739Z,13.10
2022-09-24T23:12:26.397Z,13.40
2022-09-24T23:17:28.187Z,13.40
2022-09-24T23:22:29.957Z,13.33
2022-09-24T23:27:32.237Z,13.63
2022-09-24T23:32:34.289Z,14.70
2022-09-24T23:37:36.298Z,13.60
2022-09-24T23:42:38.026Z,14.23
2022-09-24T23:47:39.546Z,14.83
2022-09-24T23:52:41.288Z,15.43
2022-09-24T23:57:42.833Z,14.37
